Time;durP1;ratioP1;P1;durP2;ratioP2;P2;SDS_P1;SDS_P2;PMS_P1;PMS_P2;Temp;Humidity;BMP_temperature;BMP_pressure;BME280_temperature;BME280_humidity;BME280_pressure;Samples;Min_cycle;Max_cycle;Signal;HPM_P1;HPM_P2
2023/12/20 00:01:29;;;;;;;1999.90;999.90;;;5.00;99.90;;;;;;5077018;28;20041;-82
2023/12/20 00:03:54;;;;;;;1999.90;999.90;;;5.00;99.90;;;;;;5076667;28;20033;-82
2023/12/20 00:06:20;;;;;;;1999.90;999.90;;;5.00;99.90;;;;;;5077546;28;20581;-82
2023/12/20 00:08:45;;;;;;;1999.90;999.90;;;5.00;99.90;;;;;;5076030;28;20037;-82
2023/12/20 00:11:11;;;;;;;1999.90;999.90;;;5.00;99.90;;;;;;5078221;28;20482;-80
2023/12/20 00:13:36;;;;;;;1999.90;999.90;;;5.00;99.90;;;;;;5078949;28;20686;-83
2023/12/20 00:16:02;;;;;;;1999.90;999.90;;;5.00;99.90;;;;;;5079185;28;20040;-82
2023/12/20 00:18:28;;;;;;;1999.90;999.90;;;5.00;99.90;;;;;;5078173;28;20037;-82
2023/12/20 00:20:53;;;;;;;1999.90;999.90;;;5.00;99.90;;;;;;5077166;28;20049;-82
2023/12/20 00:23:19;;;;;;;1999.90;999.90;;;5.00;99.90;;;;;;5080148;28;20035;-82
2023/12/20 00:25:45;;;;;;;1999.90;999.90;;;4.90;99.90;;;;;;5078741;28;20203;-82
2023/12/20 00:28:10;;;;;;;1999.90;999.90;;;5.00;99.90;;;;;;5080738;28;20115;-81
2023/12/20 00:30:36;;;;;;;1999.90;999.90;;;5.00;99.90;;;;;;5079005;28;20041;-82
2023/12/20 00:33:02;;;;;;;1999.90;999.90;;;4.90;99.90;;;;;;5080737;28;20029;-82
2023/12/20 00:35:27;;;;;;;1999.90;999.90;;;4.90;99.90;;;;;;5079187;28;20064;-82
2023/12/20 00:37:53;;;;;;;1999.90;999.90;;;4.90;99.90;;;;;;5080272;28;20483;-81
2023/12/20 00:40:19;;;;;;;1999.90;999.90;;;4.90;99.90;;;;;;5079532;28;20063;-82
2023/12/20 00:42:46;;;;;;;1999.90;999.90;;;4.90;99.90;;;;;;5080586;28;20051;-82
2023/12/20 00:45:12;;;;;;;1999.90;999.90;;;4.90;99.90;;;;;;5081170;28;20033;-82
2023/12/20 00:47:38;;;;;;;1999.90;999.90;;;5.00;99.90;;;;;;5080310;28;20029;-81
2023/12/20 00:50:04;;;;;;;1999.90;999.90;;;4.90;99.90;;;;;;5080763;28;20029;-82
2023/12/20 00:52:29;;;;;;;1999.90;999.90;;;5.00;99.90;;;;;;5082078;28;20033;-81
2023/12/20 00:54:55;;;;;;;1999.90;999.90;;;4.90;99.90;;;;;;5082286;28;20029;-82
2023/12/20 00:57:20;;;;;;;1999.90;999.90;;;5.00;99.90;;;;;;5088113;28;20052;-82
2023/12/20 00:59:46;;;;;;;1999.90;999.90;;;4.90;99.90;;;;;;5088510;28;20033;-82
2023/12/20 01:02:11;;;;;;;1999.90;999.90;;;5.00;99.90;;;;;;5080747;28;20120;-82
2023/12/20 01:04:37;;;;;;;1999.90;999.90;;;5.00;99.90;;;;;;5080774;28;20108;-81
2023/12/20 01:07:02;;;;;;;1999.90;999.90;;;5.10;99.90;;;;;;5078748;28;20033;-82
2023/12/20 01:09:28;;;;;;;1999.90;999.90;;;5.10;99.90;;;;;;5077598;28;20505;-82
2023/12/20 01:11:53;;;;;;;1999.90;999.90;;;5.10;99.90;;;;;;5079086;28;20033;-81
2023/12/20 01:14:19;;;;;;;1999.90;999.90;;;5.10;99.90;;;;;;5079333;28;20112;-82
2023/12/20 01:16:45;;;;;;;1999.90;999.90;;;5.10;99.90;;;;;;5076526;28;20059;-81
2023/12/20 01:19:10;;;;;;;1999.90;999.90;;;5.20;99.90;;;;;;5077949;28;20128;-82
2023/12/20 01:21:36;;;;;;;1999.90;999.90;;;5.30;99.90;;;;;;5076636;28;20041;-81
2023/12/20 01:24:02;;;;;;;1999.90;999.90;;;5.10;99.90;;;;;;5077005;28;20036;-82
2023/12/20 01:26:27;;;;;;;1999.90;999.90;;;5.10;99.90;;;;;;5077897;28;20041;-82
2023/12/20 01:28:53;;;;;;;1999.90;999.90;;;5.20;99.90;;;;;;5076038;28;20029;-82
2023/12/20 01:31:19;;;;;;;1999.90;999.90;;;5.20;99.90;;;;;;5078208;28;20043;-82
2023/12/20 01:33:44;;;;;;;1999.90;999.90;;;5.20;99.90;;;;;;5077178;28;20033;-82
2023/12/20 01:36:10;;;;;;;1999.90;999.90;;;5.20;99.90;;;;;;5078310;28;20029;-81
2023/12/20 01:38:36;;;;;;;1999.90;999.90;;;5.20;99.90;;;;;;5079261;28;20036;-81
2023/12/20 01:41:02;;;;;;;1999.90;999.90;;;5.20;99.90;;;;;;5075995;28;20041;-81
2023/12/20 01:43:27;;;;;;;1999.90;999.90;;;5.30;99.90;;;;;;5078331;28;20036;-80
2023/12/20 01:45:56;;;;;;;1999.90;999.90;;;5.30;99.90;;;;;;5076469;28;20834;-81
2023/12/20 01:48:21;;;;;;;1999.90;999.90;;;5.30;99.90;;;;;;5076682;28;20089;-81
2023/12/20 01:50:48;;;;;;;1999.90;999.90;;;5.30;99.90;;;;;;5075706;28;20111;-81
2023/12/20 01:53:15;;;;;;;1999.90;999.90;;;5.40;99.90;;;;;;5076371;28;20136;-81
2023/12/20 01:55:41;;;;;;;1999.90;999.90;;;5.30;99.90;;;;;;5078007;28;20032;-80
2023/12/20 01:58:12;;;;;;;1999.90;999.90;;;5.30;99.90;;;;;;5076678;28;20560;-80
2023/12/20 02:00:38;;;;;;;1999.90;999.90;;;5.30;99.90;;;;;;5076475;28;20048;-81
2023/12/20 02:03:04;;;;;;;1999.90;999.90;;;5.30;99.90;;;;;;5078183;28;20506;-81
2023/12/20 02:05:30;;;;;;;1999.90;999.90;;;5.30;99.90;;;;;;5076777;28;20036;-81
2023/12/20 02:07:56;;;;;;;1999.90;999.90;;;5.30;99.90;;;;;;5076603;28;20561;-82
2023/12/20 02:10:22;;;;;;;1999.90;999.90;;;5.30;99.90;;;;;;5077222;28;20191;-81
2023/12/20 02:12:47;;;;;;;1999.90;999.90;;;5.50;99.90;;;;;;5077377;28;20037;-82
2023/12/20 02:15:13;;;;;;;1999.90;999.90;;;5.30;99.90;;;;;;5076513;28;20383;-82
2023/12/20 02:17:39;;;;;;;1999.90;999.90;;;5.40;99.90;;;;;;5075531;28;20044;-81
2023/12/20 02:20:05;;;;;;;1999.90;999.90;;;5.30;99.90;;;;;;5075589;28;20040;-82
2023/12/20 02:22:31;;;;;;;1999.90;999.90;;;5.30;99.90;;;;;;5077449;28;20067;-82
2023/12/20 02:24:57;;;;;;;1999.90;999.90;;;5.30;99.90;;;;;;5076554;28;20029;-81
2023/12/20 02:27:23;;;;;;;1999.90;999.90;;;5.30;99.90;;;;;;5075731;28;20041;-81
2023/12/20 02:29:50;;;;;;;1999.90;999.90;;;5.40;99.90;;;;;;5076469;28;20032;-82
2023/12/20 02:32:17;;;;;;;1999.90;999.90;;;5.30;99.90;;;;;;5075730;28;20059;-81
2023/12/20 02:34:42;;;;;;;1999.90;999.90;;;5.30;99.90;;;;;;5078487;28;20594;-81
2023/12/20 02:37:08;;;;;;;1999.90;999.90;;;5.30;99.90;;;;;;5077399;28;20136;-82
2023/12/20 02:39:33;;;;;;;1999.90;999.90;;;5.30;99.90;;;;;;5078422;28;20040;-82
2023/12/20 02:41:59;;;;;;;1999.90;999.90;;;5.30;99.90;;;;;;5076837;28;20040;-81
2023/12/20 02:44:24;;;;;;;1999.90;999.90;;;5.30;99.90;;;;;;5074552;28;20059;-82
2023/12/20 02:46:50;;;;;;;1999.90;999.90;;;5.30;99.90;;;;;;5077821;28;20445;-79
2023/12/20 02:49:16;;;;;;;1999.90;999.90;;;5.30;99.90;;;;;;5076559;28;20033;-81
2023/12/20 02:51:41;;;;;;;1999.90;999.90;;;5.30;99.90;;;;;;5076578;28;20071;-81
2023/12/20 02:54:07;;;;;;;1999.90;999.90;;;5.30;99.90;;;;;;5076732;28;20064;-82
2023/12/20 02:56:33;;;;;;;1999.90;999.90;;;5.30;99.90;;;;;;5075945;28;20095;-82
2023/12/20 02:58:59;;;;;;;1999.90;999.90;;;5.30;99.90;;;;;;5076988;28;20025;-80
2023/12/20 03:01:24;;;;;;;1999.90;999.90;;;5.30;99.90;;;;;;5076507;28;20506;-82
2023/12/20 03:03:50;;;;;;;1999.90;999.90;;;5.20;99.90;;;;;;5077499;28;20033;-82
2023/12/20 03:06:20;;;;;;;1999.90;999.90;;;5.20;99.90;;;;;;5076611;28;20061;-81
2023/12/20 03:08:46;;;;;;;1999.90;999.90;;;5.20;99.90;;;;;;5078317;28;20025;-82
2023/12/20 03:11:11;;;;;;;1999.90;999.90;;;5.20;99.90;;;;;;5078102;28;20037;-81
2023/12/20 03:13:37;;;;;;;1999.90;999.90;;;5.20;99.90;;;;;;5078462;28;20043;-81
2023/12/20 03:16:13;;;;;;;1999.90;999.90;;;5.20;99.90;;;;;;5078486;28;20069;-81
2023/12/20 03:18:39;;;;;;;1999.90;999.90;;;5.20;99.90;;;;;;5091931;28;20020;-80
2023/12/20 03:21:06;;;;;;;1999.90;999.90;;;5.20;99.90;;;;;;5088919;28;20490;-81
2023/12/20 03:23:33;;;;;;;1999.90;999.90;;;5.20;99.90;;;;;;5075547;28;20029;-81
2023/12/20 03:25:59;;;;;;;1999.90;999.90;;;5.20;99.90;;;;;;5074013;28;20439;-81
2023/12/20 03:28:25;;;;;;;1999.90;999.90;;;5.20;99.90;;;;;;5075868;28;20033;-81
2023/12/20 03:30:50;;;;;;;1999.90;999.90;;;5.20;99.90;;;;;;5074759;28;20037;-82
2023/12/20 03:33:16;;;;;;;1999.90;999.90;;;5.10;99.90;;;;;;5075985;28;20025;-81
2023/12/20 03:35:41;;;;;;;1999.90;999.90;;;5.20;99.90;;;;;;5074168;28;20479;-81
2023/12/20 03:38:07;;;;;;;1999.90;999.90;;;5.20;99.90;;;;;;5074647;28;20480;-82
2023/12/20 03:40:33;;;;;;;1999.90;999.90;;;5.20;99.90;;;;;;5077257;28;20437;-82
2023/12/20 03:42:59;;;;;;;1999.90;999.90;;;5.20;99.90;;;;;;5074709;28;20040;-81
2023/12/20 03:45:24;;;;;;;1999.90;999.90;;;5.20;99.90;;;;;;5075712;28;20060;-81
2023/12/20 03:47:54;;;;;;;1999.90;999.90;;;5.30;99.90;;;;;;5075499;28;20483;-81
2023/12/20 03:50:21;;;;;;;1999.90;999.90;;;5.20;99.90;;;;;;5074756;28;20036;-82
2023/12/20 03:52:47;;;;;;;1999.90;999.90;;;5.30;99.90;;;;;;5078734;28;20033;-81
2023/12/20 03:55:13;;;;;;;1999.90;999.90;;;5.20;99.90;;;;;;5078613;28;20037;-81
2023/12/20 03:57:38;;;;;;;1999.90;999.90;;;5.20;99.90;;;;;;5078329;28;20029;-82
2023/12/20 04:00:05;;;;;;;1999.90;999.90;;;5.20;99.90;;;;;;5078149;28;20455;-81
2023/12/20 04:02:31;;;;;;;1999.90;999.90;;;5.20;99.90;;;;;;5077838;28;20048;-81
2023/12/20 04:04:56;;;;;;;1999.90;999.90;;;5.20;99.90;;;;;;5078034;28;20029;-81
2023/12/20 04:07:22;;;;;;;1999.90;999.90;;;5.20;99.90;;;;;;5077528;28;20039;-80
2023/12/20 04:09:48;;;;;;;1999.90;999.90;;;5.20;99.90;;;;;;5079065;28;20049;-82
2023/12/20 04:12:13;;;;;;;1999.90;999.90;;;5.20;99.90;;;;;;5077777;28;20029;-81
2023/12/20 04:14:39;;;;;;;1999.90;999.90;;;5.10;99.90;;;;;;5077207;28;20033;-81
2023/12/20 04:17:04;;;;;;;1999.90;999.90;;;5.10;99.90;;;;;;5078374;28;20072;-79
2023/12/20 04:19:30;;;;;;;1999.90;999.90;;;5.20;99.90;;;;;;5079806;28;20044;-81
2023/12/20 04:21:55;;;;;;;1999.90;999.90;;;5.10;99.90;;;;;;5077632;28;20044;-81
2023/12/20 04:24:22;;;;;;;1999.90;999.90;;;5.10;99.90;;;;;;5079110;28;20033;-80
2023/12/20 04:26:47;;;;;;;1999.90;999.90;;;5.10;99.90;;;;;;5079159;28;20036;-81
2023/12/20 04:29:13;;;;;;;1999.90;999.90;;;5.10;99.90;;;;;;5078354;28;20501;-81
2023/12/20 04:31:38;;;;;;;1999.90;999.90;;;5.10;99.90;;;;;;5078217;28;20074;-81
2023/12/20 04:34:04;;;;;;;1999.90;999.90;;;5.10;99.90;;;;;;5077686;28;20509;-82
2023/12/20 04:36:29;;;;;;;1999.90;999.90;;;5.10;99.90;;;;;;5078884;28;20033;-81
2023/12/20 04:38:55;;;;;;;1999.90;999.90;;;5.10;99.90;;;;;;5077420;28;20033;-81
2023/12/20 04:41:21;;;;;;;1999.90;999.90;;;5.10;99.90;;;;;;5079273;28;20048;-81
2023/12/20 04:43:46;;;;;;;1999.90;999.90;;;5.10;99.90;;;;;;5078508;28;20395;-79
2023/12/20 04:46:12;;;;;;;1999.90;999.90;;;5.20;99.90;;;;;;5078947;28;20040;-81
2023/12/20 04:48:37;;;;;;;1999.90;999.90;;;5.10;99.90;;;;;;5079406;28;20372;-81
2023/12/20 04:51:03;;;;;;;1999.90;999.90;;;5.20;99.90;;;;;;5077795;28;20037;-80
2023/12/20 04:53:28;;;;;;;1999.90;999.90;;;5.20;99.90;;;;;;5078506;28;20040;-81
2023/12/20 04:55:54;;;;;;;1999.90;999.90;;;5.20;99.90;;;;;;5078156;28;20083;-80
2023/12/20 04:58:19;;;;;;;1999.90;999.90;;;5.20;99.90;;;;;;5078518;28;20469;-81
2023/12/20 05:00:45;;;;;;;1999.90;999.90;;;5.20;99.90;;;;;;5079880;28;20479;-81
2023/12/20 05:03:11;;;;;;;1999.90;999.90;;;5.20;99.90;;;;;;5079251;28;20045;-81
2023/12/20 05:05:36;;;;;;;1999.90;999.90;;;5.20;99.90;;;;;;5080061;28;20606;-81
2023/12/20 05:08:02;;;;;;;1999.90;999.90;;;5.20;99.90;;;;;;5078643;28;20033;-81
2023/12/20 05:10:28;;;;;;;1999.90;999.90;;;5.20;99.90;;;;;;5079300;28;20033;-81
2023/12/20 05:12:53;;;;;;;1999.90;999.90;;;5.20;99.90;;;;;;5080602;28;20041;-80
2023/12/20 05:15:19;;;;;;;1999.90;999.90;;;5.20;99.90;;;;;;5079233;28;20029;-80
2023/12/20 05:17:44;;;;;;;1999.90;999.90;;;5.30;99.90;;;;;;5079485;28;20043;-81
2023/12/20 05:20:10;;;;;;;1999.90;999.90;;;5.30;99.90;;;;;;5080384;28;20107;-81
2023/12/20 05:22:36;;;;;;;1999.90;999.90;;;5.20;99.90;;;;;;5080336;28;20037;-81
2023/12/20 05:25:01;;;;;;;1999.90;999.90;;;5.30;99.90;;;;;;5080816;28;20476;-81
2023/12/20 05:27:27;;;;;;;1999.90;999.90;;;5.40;99.90;;;;;;5078624;28;20033;-81
2023/12/20 05:29:53;;;;;;;1999.90;999.90;;;5.30;99.90;;;;;;5080629;28;20071;-81
2023/12/20 05:32:18;;;;;;;1999.90;999.90;;;5.30;99.90;;;;;;5078366;28;20125;-81
2023/12/20 05:34:44;;;;;;;1999.90;999.90;;;5.30;99.90;;;;;;5081372;28;20375;-80
2023/12/20 05:37:09;;;;;;;1999.90;999.90;;;5.30;99.90;;;;;;5079299;28;20051;-81
2023/12/20 05:39:35;;;;;;;1999.90;999.90;;;5.30;99.90;;;;;;5084984;28;20085;-81
2023/12/20 05:42:00;;;;;;;1999.90;999.90;;;5.30;99.90;;;;;;5088012;28;20123;-81
2023/12/20 05:44:26;;;;;;;1999.90;999.90;;;5.30;99.90;;;;;;5077024;28;20108;-80
2023/12/20 05:46:51;;;;;;;1999.90;999.90;;;5.30;99.90;;;;;;5061417;28;20037;-80
2023/12/20 05:49:17;;;;;;;1999.90;999.90;;;5.40;99.90;;;;;;5064661;28;20041;-80
2023/12/20 05:51:43;;;;;;;1999.90;999.90;;;5.40;99.90;;;;;;5076186;28;20033;-81
2023/12/20 05:54:09;;;;;;;1999.90;999.90;;;5.40;99.90;;;;;;5079197;28;20132;-77
2023/12/20 05:56:35;;;;;;;1999.90;999.90;;;5.40;99.90;;;;;;5078148;28;20112;-81
2023/12/20 05:59:00;;;;;;;1999.90;999.90;;;5.30;99.90;;;;;;5077263;28;20124;-77
2023/12/20 06:01:26;;;;;;;1999.90;999.90;;;5.40;99.90;;;;;;5075627;28;20072;-79
2023/12/20 06:03:51;;;;;;;1999.90;999.90;;;5.40;99.90;;;;;;5078184;28;20036;-77
2023/12/20 06:06:17;;;;;;;1999.90;999.90;;;5.40;99.90;;;;;;5075663;28;20032;-79
2023/12/20 06:08:43;;;;;;;1999.90;999.90;;;5.40;99.90;;;;;;5075761;28;20028;-80
2023/12/20 06:11:09;;;;;;;1999.90;999.90;;;5.40;99.90;;;;;;5065720;28;20053;-80
2023/12/20 06:13:35;;;;;;;1999.90;999.90;;;5.40;99.90;;;;;;5070686;28;20036;-81
2023/12/20 06:16:01;;;;;;;1999.90;999.90;;;5.40;99.90;;;;;;5056363;28;20064;-82
2023/12/20 06:18:26;;;;;;;1999.90;999.90;;;5.50;99.90;;;;;;5058168;28;20542;-81
2023/12/20 06:20:52;;;;;;;1999.90;999.90;;;5.40;99.90;;;;;;5081827;22;20642;-77
2023/12/20 06:23:17;;;;;;;1999.90;999.90;;;5.50;99.90;;;;;;5074874;28;20388;-77
2023/12/20 06:25:44;;;;;;;1999.90;999.90;;;5.50;99.90;;;;;;5089804;28;20036;-78
2023/12/20 06:28:10;;;;;;;1999.90;999.90;;;5.40;99.90;;;;;;5075431;28;20105;-76
2023/12/20 06:30:36;;;;;;;1999.90;999.90;;;5.50;99.90;;;;;;5074588;28;20072;-77
2023/12/20 06:33:01;;;;;;;1999.90;999.90;;;5.50;99.90;;;;;;5074809;28;20037;-76
2023/12/20 06:35:27;;;;;;;1999.90;999.90;;;5.50;99.90;;;;;;5073632;28;20033;-77
2023/12/20 06:37:52;;;;;;;1999.90;999.90;;;5.50;99.90;;;;;;5073393;28;20044;-76
2023/12/20 06:40:18;;;;;;;1999.90;999.90;;;5.50;99.90;;;;;;5074543;28;20041;-76
2023/12/20 06:42:44;;;;;;;1999.90;999.90;;;5.50;99.90;;;;;;5058709;28;20041;-76
2023/12/20 06:45:10;;;;;;;1999.90;999.90;;;5.50;99.90;;;;;;5071940;28;20033;-75
2023/12/20 06:47:35;;;;;;;1999.90;999.90;;;5.50;99.90;;;;;;5056510;28;20526;-76
2023/12/20 06:50:01;;;;;;;1999.90;999.90;;;5.50;99.90;;;;;;5054625;28;20034;-77
2023/12/20 06:52:27;;;;;;;1999.90;999.90;;;5.50;99.90;;;;;;5054321;28;20096;-75
2023/12/20 06:54:52;;;;;;;1999.90;999.90;;;5.50;99.90;;;;;;5052812;28;20054;-76
2023/12/20 06:57:19;;;;;;;1999.90;999.90;;;5.60;99.90;;;;;;5053701;28;20041;-75
2023/12/20 06:59:45;;;;;;;1999.90;999.90;;;5.50;99.90;;;;;;5052788;28;20041;-76
2023/12/20 07:02:11;;;;;;;1999.90;999.90;;;5.50;99.90;;;;;;5061434;28;20041;-78
2023/12/20 07:04:40;;;;;;;1999.90;999.90;;;5.50;99.90;;;;;;5072746;28;20040;-77
2023/12/20 07:07:07;;;;;;;1999.90;999.90;;;5.50;99.90;;;;;;5072210;28;20044;-77
2023/12/20 07:09:32;;;;;;;1999.90;999.90;;;5.50;99.90;;;;;;5074079;28;20025;-76
2023/12/20 07:11:58;;;;;;;1999.90;999.90;;;5.50;99.90;;;;;;5074122;28;20056;-76
2023/12/20 07:14:23;;;;;;;1999.90;999.90;;;5.60;99.90;;;;;;5074380;28;20036;-76
2023/12/20 07:16:49;;;;;;;1999.90;999.90;;;5.60;99.90;;;;;;5073665;28;20156;-77
2023/12/20 07:19:15;;;;;;;1999.90;999.90;;;5.60;99.90;;;;;;5074233;28;20036;-76
2023/12/20 07:21:40;;;;;;;1999.90;999.90;;;5.60;99.90;;;;;;5073710;28;20049;-77
2023/12/20 07:24:06;;;;;;;1999.90;999.90;;;5.60;99.90;;;;;;5072261;28;20033;-77
2023/12/20 07:26:31;;;;;;;1999.90;999.90;;;5.60;99.90;;;;;;5057174;28;20056;-76
2023/12/20 07:28:58;;;;;;;1999.90;999.90;;;5.60;99.90;;;;;;5073605;28;20048;-75
2023/12/20 07:31:24;;;;;;;1999.90;999.90;;;5.60;99.90;;;;;;5077194;28;20084;-76
2023/12/20 07:33:49;;;;;;;1999.90;999.90;;;5.60;99.90;;;;;;5071853;28;20088;-75
2023/12/20 07:36:15;;;;;;;1999.90;999.90;;;5.60;99.90;;;;;;5075376;28;20043;-76
2023/12/20 07:38:41;;;;;;;1999.90;999.90;;;5.60;99.90;;;;;;5077672;28;20040;-77
2023/12/20 07:41:12;;;;;;;1999.90;999.90;;;5.60;99.90;;;;;;5075759;28;20037;-76
2023/12/20 07:43:38;;;;;;;1999.90;999.90;;;5.60;99.90;;;;;;5077523;28;20465;-76
2023/12/20 07:46:07;;;;;;;1999.90;999.90;;;5.60;99.90;;;;;;5076726;28;20029;-76
2023/12/20 07:48:36;;;;;;;1999.90;999.90;;;5.50;99.90;;;;;;5077231;28;20057;-77
2023/12/20 07:51:02;;;;;;;1999.90;999.90;;;5.50;99.90;;;;;;5077086;28;20374;-77
2023/12/20 07:53:27;;;;;;;1999.90;999.90;;;5.50;99.90;;;;;;5077736;28;20037;-77
2023/12/20 07:55:53;;;;;;;1999.90;999.90;;;5.50;99.90;;;;;;5076955;28;20041;-77
2023/12/20 07:58:19;;;;;;;1999.90;999.90;;;5.50;99.90;;;;;;5063124;28;20051;-81
2023/12/20 08:00:44;;;;;;;1999.90;999.90;;;5.50;99.90;;;;;;5058463;28;20033;-82
2023/12/20 08:03:10;;;;;;;1999.90;999.90;;;5.50;99.90;;;;;;5059586;28;20034;-80
2023/12/20 08:05:36;;;;;;;1999.90;999.90;;;5.40;99.90;;;;;;5059924;28;20105;-81
2023/12/20 08:08:01;;;;;;;1999.90;999.90;;;5.50;99.90;;;;;;5077988;28;20529;-80
2023/12/20 08:10:29;;;;;;;1999.90;999.90;;;5.50;99.90;;;;;;5077178;28;20044;-81
2023/12/20 08:12:55;;;;;;;1999.90;999.90;;;5.50;99.90;;;;;;5077223;28;20040;-82
2023/12/20 08:15:21;;;;;;;1999.90;999.90;;;5.50;99.90;;;;;;5070895;28;20040;-81
2023/12/20 08:17:46;;;;;;;1999.90;999.90;;;5.40;99.90;;;;;;5056192;28;20156;-81
2023/12/20 08:20:12;;;;;;;1999.90;999.90;;;5.30;99.90;;;;;;5060748;28;20040;-81
2023/12/20 08:22:38;;;;;;;1999.90;999.90;;;5.20;99.90;;;;;;5076964;28;20049;-81
2023/12/20 08:25:04;;;;;;;1999.90;999.90;;;5.10;99.90;;;;;;5079308;28;20029;-81
2023/12/20 08:27:31;;;;;;;1999.90;999.90;;;5.10;99.90;;;;;;5076751;28;20118;-81
2023/12/20 08:29:57;;;;;;;1999.90;999.90;;;5.00;99.90;;;;;;5078561;28;20029;-82
2023/12/20 08:32:26;;;;;;;1999.90;999.90;;;5.10;99.90;;;;;;5077329;28;20043;-81
2023/12/20 08:34:52;;;;;;;1999.90;999.90;;;5.10;99.90;;;;;;5078140;28;20028;-81
2023/12/20 08:37:17;;;;;;;1999.90;999.90;;;5.10;99.90;;;;;;5077612;28;20043;-77
2023/12/20 08:39:43;;;;;;;1999.90;999.90;;;5.20;99.90;;;;;;5076967;28;20048;-77
2023/12/20 08:42:09;;;;;;;1999.90;999.90;;;5.40;99.90;;;;;;5074865;28;20563;-76
2023/12/20 08:44:35;;;;;;;1999.90;999.90;;;5.40;99.90;;;;;;5076255;28;20045;-76
2023/12/20 08:47:00;;;;;;;1999.90;999.90;;;5.40;99.90;;;;;;5075799;28;20045;-77
2023/12/20 08:49:27;;;;;;;1999.90;999.90;;;5.30;99.90;;;;;;5076370;28;20155;-77
2023/12/20 08:51:53;;;;;;;1999.90;999.90;;;5.30;99.90;;;;;;5076044;28;20580;-76
2023/12/20 08:54:19;;;;;;;1999.90;999.90;;;5.20;99.90;;;;;;5077185;28;20108;-76
2023/12/20 08:56:45;;;;;;;1999.90;999.90;;;5.10;99.90;;;;;;5076651;28;20535;-78
2023/12/20 08:59:11;;;;;;;1999.90;999.90;;;5.00;99.90;;;;;;5075413;28;20028;-75
2023/12/20 09:01:37;;;;;;;1999.90;999.90;;;5.00;99.90;;;;;;5072132;28;20052;-78
2023/12/20 09:04:03;;;;;;;1999.90;999.90;;;4.90;99.90;;;;;;5072456;28;20040;-77
2023/12/20 09:06:28;;;;;;;1999.90;999.90;;;4.90;99.90;;;;;;5075739;28;20095;-76
2023/12/20 09:08:54;;;;;;;1999.90;999.90;;;4.90;99.90;;;;;;5074854;28;20029;-75
2023/12/20 09:11:19;;;;;;;1999.90;999.90;;;4.90;99.90;;;;;;5076267;28;20064;-76
2023/12/20 09:13:45;;;;;;;1999.90;999.90;;;4.90;99.90;;;;;;5075749;28;20040;-77
2023/12/20 09:16:12;;;;;;;1999.90;999.90;;;4.90;99.90;;;;;;5075400;28;20116;-76
2023/12/20 09:18:38;;;;;;;1999.90;999.90;;;5.00;99.90;;;;;;5059881;28;20030;-77
2023/12/20 09:21:04;;;;;;;1999.90;999.90;;;5.00;99.90;;;;;;5059786;28;20041;-77
2023/12/20 09:23:29;;;;;;;1999.90;999.90;;;5.10;99.90;;;;;;5076225;28;20063;-77
2023/12/20 09:25:55;;;;;;;1999.90;999.90;;;5.10;99.90;;;;;;5075178;28;20033;-77
2023/12/20 09:28:20;;;;;;;1999.90;999.90;;;5.10;99.90;;;;;;5075881;28;20068;-78
2023/12/20 09:30:47;;;;;;;1999.90;999.90;;;5.10;99.90;;;;;;5075358;28;20498;-77
2023/12/20 09:33:13;;;;;;;1999.90;999.90;;;5.20;99.90;;;;;;5075854;28;20479;-77
2023/12/20 09:35:38;;;;;;;1999.90;999.90;;;5.20;99.90;;;;;;5075652;28;20086;-78
2023/12/20 09:38:04;;;;;;;1999.90;999.90;;;5.30;99.90;;;;;;5073959;28;20044;-78
2023/12/20 09:40:33;;;;;;;1999.90;999.90;;;5.30;99.90;;;;;;5075384;28;20028;-76
2023/12/20 09:43:03;;;;;;;1999.90;999.90;;;5.30;99.90;;;;;;5075619;28;20494;-76
2023/12/20 09:45:30;;;;;;;1999.90;999.90;;;5.30;99.90;;;;;;5075215;28;20537;-76
2023/12/20 09:47:57;;;;;;;1999.90;999.90;;;5.40;99.90;;;;;;5073030;28;20033;-77
2023/12/20 09:50:23;;;;;;;1999.90;999.90;;;5.50;99.90;;;;;;5074816;28;20037;-76
2023/12/20 09:52:51;;;;;;;1999.90;999.90;;;5.60;99.90;;;;;;5073534;28;20040;-76
2023/12/20 09:55:18;;;;;;;1999.90;999.90;;;5.70;99.90;;;;;;5075439;28;20037;-76
2023/12/20 09:57:44;;;;;;;1999.90;999.90;;;5.70;99.90;;;;;;5074588;28;20068;-76
2023/12/20 10:00:11;;;;;;;1999.90;999.90;;;5.70;99.90;;;;;;5073763;28;20040;-76
2023/12/20 10:02:42;;;;;;;1999.90;999.90;;;5.70;99.90;;;;;;5075143;28;20120;-76
2023/12/20 10:05:09;;;;;;;1999.90;999.90;;;5.70;99.90;;;;;;5075409;28;20037;-76
2023/12/20 10:07:37;;;;;;;1999.90;999.90;;;5.60;99.90;;;;;;5074717;28;20056;-76
2023/12/20 10:10:04;;;;;;;1999.90;999.90;;;5.60;99.90;;;;;;5075288;28;20021;-80
2023/12/20 10:12:30;;;;;;;1999.90;999.90;;;5.50;99.90;;;;;;5073249;28;20449;-77
2023/12/20 10:14:57;;;;;;;1999.90;999.90;;;5.60;99.90;;;;;;5075223;28;20033;-77
2023/12/20 10:17:24;;;;;;;1999.90;999.90;;;5.60;99.90;;;;;;5074053;28;20029;-76
2023/12/20 10:19:49;;;;;;;1999.90;999.90;;;5.70;99.90;;;;;;5074986;28;20517;-76
2023/12/20 10:22:15;;;;;;;1999.90;999.90;;;5.80;99.90;;;;;;5072982;28;20049;-83
2023/12/20 10:24:41;;;;;;;1999.90;999.90;;;5.90;99.90;;;;;;5075248;28;20043;-77
2023/12/20 10:27:08;;;;;;;1999.90;999.90;;;6.10;99.90;;;;;;5071221;28;20033;-78
2023/12/20 10:29:38;;;;;;;1999.90;999.90;;;6.30;99.90;;;;;;5054809;28;20521;-78
2023/12/20 10:32:26;;;;;;;1999.90;999.90;;;6.50;99.90;;;;;;5074412;28;20490;-78
2023/12/20 10:34:53;;;;;;;1999.90;999.90;;;6.50;99.90;;;;;;5074595;28;20124;-78
2023/12/20 10:37:19;;;;;;;1999.90;999.90;;;6.50;99.90;;;;;;5073920;28;20029;-78
2023/12/20 10:39:56;;;;;;;1999.90;999.90;;;6.50;99.90;;;;;;5072939;28;20563;-76
2023/12/20 10:42:22;;;;;;;1999.90;999.90;;;6.40;99.90;;;;;;5074611;28;20052;-78
2023/12/20 10:44:49;;;;;;;1999.90;999.90;;;6.30;99.90;;;;;;5072915;28;20072;-78
2023/12/20 10:47:16;;;;;;;1999.90;999.90;;;6.20;99.90;;;;;;5073844;28;20039;-78
2023/12/20 10:49:44;;;;;;;1999.90;999.90;;;6.20;99.90;;;;;;5074439;28;20136;-75
2023/12/20 10:52:11;;;;;;;1999.90;999.90;;;6.20;99.90;;;;;;5073129;28;20098;-79
2023/12/20 10:54:37;;;;;;;1999.90;999.90;;;6.20;99.90;;;;;;5071095;28;20037;-79
2023/12/20 10:57:05;;;;;;;1999.90;999.90;;;6.20;99.90;;;;;;5051996;28;20446;-78
2023/12/20 10:59:33;;;;;;;1999.90;999.90;;;6.30;99.90;;;;;;5054019;28;20075;-79
2023/12/20 11:02:00;;;;;;;1999.90;999.90;;;6.70;99.90;;;;;;5056841;28;21307;-78
2023/12/20 11:04:45;;;;;;;1999.90;999.90;;;6.60;99.90;;;;;;5058485;28;20107;-78
2023/12/20 11:07:32;;;;;;;1999.90;999.90;;;6.70;99.90;;;;;;5077846;28;20090;-78
2023/12/20 11:10:11;;;;;;;1999.90;999.90;;;6.70;99.90;;;;;;5078271;28;20040;-79
2023/12/20 11:12:58;;;;;;;1999.90;999.90;;;6.80;99.90;;;;;;5074847;28;20033;-78
2023/12/20 11:15:24;;;;;;;1999.90;999.90;;;6.90;99.90;;;;;;5077917;28;20025;-79
2023/12/20 11:17:59;;;;;;;1999.90;999.90;;;7.00;99.90;;;;;;5077561;28;20044;-78
2023/12/20 11:20:40;;;;;;;1999.90;999.90;;;7.10;99.90;;;;;;5077545;28;20036;-78
2023/12/20 11:23:07;;;;;;;1999.90;999.90;;;7.10;99.90;;;;;;5077829;28;20040;-78
2023/12/20 11:25:52;;;;;;;1999.90;999.90;;;7.00;99.90;;;;;;5077799;28;20036;-76
2023/12/20 11:28:21;;;;;;;1999.90;999.90;;;6.90;99.90;;;;;;5076344;28;20534;-75
2023/12/20 11:30:49;;;;;;;1999.90;999.90;;;6.80;99.90;;;;;;5076099;28;20032;-76
2023/12/20 11:33:16;;;;;;;1999.90;999.90;;;6.80;99.90;;;;;;5077746;28;20029;-75
2023/12/20 11:35:42;;;;;;;1999.90;999.90;;;6.70;99.90;;;;;;5077212;28;20029;-76
2023/12/20 11:38:09;;;;;;;1999.90;999.90;;;6.70;99.90;;;;;;5077772;28;20040;-79
2023/12/20 11:40:35;;;;;;;1999.90;999.90;;;6.70;99.90;;;;;;5078324;28;20108;-76
2023/12/20 11:43:01;;;;;;;1999.90;999.90;;;6.70;99.90;;;;;;5077685;28;20052;-77
2023/12/20 11:45:27;;;;;;;1999.90;999.90;;;6.60;99.90;;;;;;5078457;28;20059;-77
2023/12/20 11:47:55;;;;;;;1999.90;999.90;;;6.60;99.90;;;;;;5077163;28;20041;-76
2023/12/20 11:50:22;;;;;;;1999.90;999.90;;;6.80;99.90;;;;;;5077701;28;20025;-77
2023/12/20 11:52:49;;;;;;;1999.90;999.90;;;6.80;99.90;;;;;;5077581;28;20036;-77
2023/12/20 11:55:14;;;;;;;1999.90;999.90;;;6.80;99.90;;;;;;5077611;28;20020;-77
2023/12/20 11:57:40;;;;;;;1999.90;999.90;;;6.70;99.90;;;;;;5078001;28;20436;-77
2023/12/20 12:00:06;;;;;;;1999.90;999.90;;;6.80;99.90;;;;;;5078096;28;20037;-76
2023/12/20 12:02:32;;;;;;;1999.90;999.90;;;6.80;99.90;;;;;;5076661;28;20053;-76
2023/12/20 12:04:59;;;;;;;1999.90;999.90;;;6.90;99.90;;;;;;5077317;28;20060;-77